createdAt,value
2024-02-29T00:02:14.954Z,81.60
2024-02-29T00:04:41.651Z,81.42
2024-02-29T00:07:09.580Z,80.75
2024-02-29T00:09:40.239Z,80.95
2024-02-29T00:12:07.599Z,80.96
2024-02-29T00:14:34.250Z,81.05
2024-02-29T00:17:02.237Z,81.40
2024-02-29T00:19:29.383Z,81.12
2024-02-29T00:21:56.313Z,81.34
2024-02-29T00:24:23.112Z,82.25
2024-02-29T00:26:50.050Z,81.82
2024-02-29T00:29:16.713Z,81.22
2024-02-29T00:31:47.412Z,81.81
2024-02-29T00:34:15.052Z,81.84
2024-02-29T00:36:41.861Z,82.57
2024-02-29T00:39:14.523Z,82.39
2024-02-29T00:41:41.935Z,83.00
2024-02-29T00:44:08.932Z,82.53
2024-02-29T00:46:38.706Z,82.14
2024-02-29T00:49:05.751Z,82.27
2024-02-29T00:51:33.070Z,82.69
2024-02-29T00:54:00.065Z,82.13
2024-02-29T00:56:26.805Z,82.25
2024-02-29T00:58:53.428Z,82.66
2024-02-29T01:01:20.219Z,82.67
2024-02-29T01:03:46.911Z,82.43
2024-02-29T01:06:13.658Z,82.24
2024-02-29T01:08:40.314Z,81.77
2024-02-29T01:11:07.156Z,82.35
2024-02-29T01:13:33.897Z,82.03
2024-02-29T01:16:00.617Z,81.83
2024-02-29T01:18:27.312Z,81.95
2024-02-29T01:20:53.995Z,82.62
2024-02-29T01:23:20.678Z,81.69
2024-02-29T01:25:47.492Z,82.19
2024-02-29T01:28:14.322Z,82.10
2024-02-29T01:30:41.417Z,82.43
2024-02-29T01:33:08.161Z,82.45
2024-02-29T01:35:34.904Z,82.99
2024-02-29T01:38:01.566Z,82.95
2024-02-29T01:40:28.370Z,83.09
2024-02-29T01:42:55.086Z,82.37
2024-02-29T01:45:21.874Z,83.05
2024-02-29T01:47:49.486Z,82.70
2024-02-29T01:50:17.068Z,82.94
2024-02-29T01:52:45.304Z,82.99
2024-02-29T01:55:12.965Z,83.27
2024-02-29T01:57:40.781Z,82.62
2024-02-29T02:00:10.086Z,82.50
2024-02-29T02:02:39.221Z,82.83
2024-02-29T02:05:09.477Z,82.49
2024-02-29T02:07:37.217Z,82.70
2024-02-29T02:10:06.909Z,82.93
2024-02-29T02:12:33.913Z,83.19
2024-02-29T02:15:03.470Z,82.81
2024-02-29T02:17:31.437Z,83.28
2024-02-29T02:19:59.524Z,83.33
2024-02-29T02:22:28.070Z,82.26
2024-02-29T02:24:54.859Z,83.00
2024-02-29T02:27:21.927Z,82.76
2024-02-29T02:29:48.645Z,82.96
2024-02-29T02:32:15.337Z,83.27
2024-02-29T02:34:41.975Z,83.32
2024-02-29T02:37:08.775Z,83.29
2024-02-29T02:39:35.474Z,82.99
2024-02-29T02:42:02.519Z,82.69
2024-02-29T02:44:29.200Z,82.42
2024-02-29T02:46:55.879Z,82.77
2024-02-29T02:49:22.575Z,83.71
2024-02-29T02:51:49.273Z,83.58
2024-02-29T02:54:15.957Z,83.04
2024-02-29T02:56:42.593Z,83.24
2024-02-29T02:59:09.266Z,82.90
2024-02-29T03:01:36.007Z,82.79
2024-02-29T03:04:02.762Z,83.21
2024-02-29T03:06:29.544Z,83.39
2024-02-29T03:08:56.362Z,82.87
2024-02-29T03:11:23.128Z,83.45
2024-02-29T03:13:49.774Z,83.22
2024-02-29T03:16:23.937Z,82.75
2024-02-29T03:18:50.824Z,83.41
2024-02-29T03:21:17.692Z,83.04
2024-02-29T03:23:44.506Z,83.85
2024-02-29T03:26:11.444Z,83.76
2024-02-29T03:28:38.218Z,83.83
2024-02-29T03:31:04.950Z,83.53
2024-02-29T03:33:31.899Z,83.99
2024-02-29T03:35:58.698Z,83.65
2024-02-29T03:38:25.413Z,83.59
2024-02-29T03:40:53.118Z,83.08
2024-02-29T03:43:20.067Z,83.63
2024-02-29T03:45:46.886Z,83.88
2024-02-29T03:48:13.627Z,83.72
2024-02-29T03:50:40.352Z,84.08
2024-02-29T03:53:07.072Z,84.02
2024-02-29T03:55:33.715Z,83.71
2024-02-29T03:58:00.538Z,83.56
2024-02-29T04:00:27.241Z,83.15
2024-02-29T04:02:53.924Z,83.86
2024-02-29T04:05:25.151Z,83.75
2024-02-29T04:08:01.365Z,83.40
2024-02-29T04:10:31.414Z,83.15
2024-02-29T04:12:59.605Z,82.93
2024-02-29T04:15:26.319Z,82.85
2024-02-29T04:17:53.018Z,82.66
2024-02-29T04:20:19.884Z,83.15
2024-02-29T04:22:46.503Z,84.26
2024-02-29T04:25:13.892Z,84.30
2024-02-29T04:27:40.662Z,83.99
2024-02-29T04:30:09.554Z,83.48
2024-02-29T04:32:38.904Z,83.81
2024-02-29T04:35:06.954Z,83.01
2024-02-29T04:37:33.723Z,83.84
2024-02-29T04:40:00.434Z,83.46
2024-02-29T04:42:27.075Z,83.48
2024-02-29T04:44:53.686Z,83.32
2024-02-29T04:47:20.395Z,83.74
2024-02-29T04:49:47.022Z,84.90
2024-02-29T04:52:13.734Z,84.16
2024-02-29T04:54:40.467Z,84.44
2024-02-29T04:57:07.521Z,84.29
2024-02-29T04:59:34.177Z,84.52
2024-02-29T05:02:02.638Z,84.80
2024-02-29T05:04:29.672Z,84.48
2024-02-29T05:06:57.365Z,84.28
2024-02-29T05:09:27.517Z,84.48
2024-02-29T05:11:55.074Z,84.37
2024-02-29T05:14:21.745Z,84.65
2024-02-29T05:16:48.689Z,84.78
2024-02-29T05:19:15.593Z,84.41
2024-02-29T05:21:44.792Z,84.55
2024-02-29T05:24:11.537Z,84.11
2024-02-29T05:26:38.382Z,83.66
2024-02-29T05:29:05.083Z,83.86
2024-02-29T05:31:32.269Z,83.36
2024-02-29T05:33:59.026Z,83.16
2024-02-29T05:36:25.730Z,83.70
2024-02-29T05:38:52.444Z,83.46
2024-02-29T05:41:19.718Z,83.84
2024-02-29T05:43:47.399Z,83.94
2024-02-29T05:46:14.437Z,83.58
2024-02-29T05:48:41.347Z,83.62
2024-02-29T05:51:12.630Z,83.75
2024-02-29T05:53:39.698Z,84.28
2024-02-29T05:56:06.335Z,83.85
2024-02-29T05:58:33.101Z,83.47
2024-02-29T06:01:02.169Z,84.00
2024-02-29T06:03:41.214Z,84.05
2024-02-29T06:06:08.385Z,84.58
2024-02-29T06:08:35.075Z,84.89
2024-02-29T06:11:04.444Z,84.34
2024-02-29T06:13:33.063Z,83.94
2024-02-29T06:16:51.960Z,83.68
2024-02-29T06:19:40.001Z,83.98
2024-02-29T06:22:36.397Z,83.84
2024-02-29T06:25:12.843Z,83.81
2024-02-29T06:27:43.380Z,83.24
2024-02-29T06:30:59.899Z,83.83
2024-02-29T06:33:28.071Z,83.29
2024-02-29T06:35:54.975Z,83.29
2024-02-29T06:38:27.857Z,83.97
2024-02-29T06:41:45.284Z,82.39
2024-02-29T06:44:20.180Z,83.10
2024-02-29T06:46:48.917Z,82.39
2024-02-29T06:49:19.446Z,83.14
2024-02-29T06:52:33.803Z,82.81
2024-02-29T06:55:12.167Z,82.45
2024-02-29T06:57:55.197Z,81.60
2024-02-29T07:00:43.776Z,81.92
2024-02-29T07:03:24.017Z,82.03
2024-02-29T07:05:56.356Z,81.80
2024-02-29T07:08:31.537Z,81.64
2024-02-29T07:11:06.712Z,81.87
2024-02-29T07:13:57.933Z,81.67
2024-02-29T07:16:41.482Z,81.63
2024-02-29T07:19:14.147Z,81.85
2024-02-29T07:21:42.791Z,80.86
2024-02-29T07:24:10.034Z,80.12
2024-02-29T07:26:45.128Z,80.63
2024-02-29T07:29:12.908Z,81.15
2024-02-29T07:31:43.439Z,80.92
2024-02-29T07:34:12.126Z,81.03
2024-02-29T07:36:45.305Z,80.47
2024-02-29T07:39:13.513Z,80.26
2024-02-29T07:41:42.141Z,80.85
2024-02-29T07:44:16.218Z,79.63
2024-02-29T07:46:43.934Z,79.92
2024-02-29T07:49:12.190Z,80.71
2024-02-29T07:52:03.972Z,80.47
2024-02-29T07:54:43.308Z,81.25
2024-02-29T07:57:22.541Z,81.45
2024-02-29T07:59:52.963Z,80.17
2024-02-29T08:02:23.773Z,81.17
2024-02-29T08:04:51.598Z,81.07
2024-02-29T08:07:18.696Z,81.50
2024-02-29T08:09:48.557Z,81.39
2024-02-29T08:12:15.347Z,80.94
2024-02-29T08:14:42.696Z,81.46
2024-02-29T08:17:09.341Z,80.55
2024-02-29T08:19:35.985Z,80.50
2024-02-29T08:22:02.778Z,80.49
2024-02-29T08:24:29.398Z,80.17
2024-02-29T08:26:56.049Z,80.28
2024-02-29T08:29:22.664Z,80.33
2024-02-29T08:31:49.433Z,79.07
2024-02-29T08:34:16.068Z,79.06
2024-02-29T08:36:42.909Z,79.86
2024-02-29T08:39:09.589Z,79.84
2024-02-29T08:41:36.227Z,79.37
2024-02-29T08:44:04.480Z,79.53
2024-02-29T08:46:31.226Z,78.45
2024-02-29T08:49:00.335Z,78.27
2024-02-29T08:51:28.443Z,78.52
2024-02-29T08:53:55.107Z,78.14
2024-02-29T08:56:21.801Z,77.88
2024-02-29T08:58:48.479Z,76.88
2024-02-29T09:01:15.249Z,76.21
2024-02-29T09:03:41.894Z,75.92
2024-02-29T09:06:08.523Z,75.99
2024-02-29T09:08:35.155Z,75.88
2024-02-29T09:11:01.873Z,74.59
2024-02-29T09:13:34.797Z,75.64
2024-02-29T09:16:02.711Z,74.70
2024-02-29T09:18:30.938Z,74.54
2024-02-29T09:20:58.216Z,74.07
2024-02-29T09:23:25.104Z,73.77
2024-02-29T09:25:51.773Z,73.23
2024-02-29T09:28:18.636Z,73.26
2024-02-29T09:30:45.407Z,72.57
2024-02-29T09:33:13.122Z,72.39
2024-02-29T09:35:39.791Z,71.50
2024-02-29T09:38:06.446Z,70.71
2024-02-29T09:40:42.003Z,70.25
2024-02-29T09:43:16.547Z,69.88
2024-02-29T09:45:44.265Z,69.37
2024-02-29T09:48:12.424Z,69.13
2024-02-29T09:50:39.504Z,68.94
2024-02-29T09:53:06.394Z,67.71
2024-02-29T09:55:33.510Z,67.98
2024-02-29T09:58:01.479Z,66.73
2024-02-29T10:00:28.251Z,67.58
2024-02-29T10:02:56.928Z,67.14
2024-02-29T10:05:23.797Z,67.55
2024-02-29T10:07:50.485Z,67.20
2024-02-29T10:10:18.212Z,66.98
2024-02-29T10:12:53.337Z,66.92
2024-02-29T10:15:20.565Z,66.29
2024-02-29T10:17:47.242Z,66.38
2024-02-29T10:20:16.649Z,65.30
2024-02-29T10:22:45.304Z,66.93
2024-02-29T10:25:14.288Z,66.72
2024-02-29T10:27:42.056Z,66.54
2024-02-29T10:30:14.592Z,66.43
2024-02-29T10:32:45.357Z,66.39
2024-02-29T10:35:28.355Z,65.72
2024-02-29T10:37:56.215Z,66.16
2024-02-29T10:40:24.977Z,65.42
2024-02-29T10:42:53.176Z,66.03
2024-02-29T10:45:20.594Z,65.11
2024-02-29T10:47:58.456Z,64.40
2024-02-29T10:50:29.951Z,65.01
2024-02-29T10:53:20.424Z,65.07
2024-02-29T10:55:57.900Z,65.62
2024-02-29T10:58:50.916Z,65.09
2024-02-29T11:01:18.616Z,64.63
2024-02-29T11:03:47.003Z,63.67
2024-02-29T11:06:14.029Z,64.77
2024-02-29T11:08:41.541Z,64.39
2024-02-29T11:11:16.173Z,64.15
2024-02-29T11:13:42.921Z,64.13
2024-02-29T11:16:12.148Z,64.40
2024-02-29T11:18:39.274Z,64.85
2024-02-29T11:21:06.916Z,64.59
2024-02-29T11:23:43.173Z,63.88
2024-02-29T11:26:11.866Z,62.98
2024-02-29T11:28:40.679Z,62.43
2024-02-29T11:31:18.738Z,62.80
2024-02-29T11:33:48.910Z,62.49
2024-02-29T11:36:15.686Z,62.72
2024-02-29T11:38:42.429Z,62.59
2024-02-29T11:41:20.058Z,62.35
2024-02-29T11:43:47.893Z,62.09
2024-02-29T11:46:15.331Z,61.68
2024-02-29T11:48:42.701Z,62.32
2024-02-29T11:51:09.845Z,60.78
2024-02-29T11:53:37.876Z,61.36
2024-02-29T11:56:14.101Z,61.07
2024-02-29T11:58:43.009Z,60.55
2024-02-29T12:01:13.314Z,60.82
2024-02-29T12:03:40.229Z,61.00
2024-02-29T12:06:07.446Z,60.78
2024-02-29T12:08:34.226Z,60.70
2024-02-29T12:11:01.396Z,62.23
2024-02-29T12:13:29.644Z,61.24
2024-02-29T12:15:58.370Z,60.92
2024-02-29T12:18:25.056Z,60.45
2024-02-29T12:20:52.502Z,61.01
2024-02-29T12:23:20.694Z,60.44
2024-02-29T12:25:47.635Z,60.47
2024-02-29T12:28:14.734Z,60.70
2024-02-29T12:30:41.991Z,60.85
2024-02-29T12:33:11.120Z,60.35
2024-02-29T12:35:38.004Z,61.04
2024-02-29T12:38:05.372Z,61.55
2024-02-29T12:40:34.317Z,60.54
2024-02-29T12:43:01.226Z,60.54
2024-02-29T12:45:28.402Z,61.36
2024-02-29T12:47:55.746Z,60.42
2024-02-29T12:50:23.044Z,59.93
2024-02-29T12:52:55.263Z,60.82
2024-02-29T12:55:23.149Z,60.14
2024-02-29T12:57:50.812Z,60.61
2024-02-29T13:00:24.354Z,60.29
2024-02-29T13:02:51.829Z,59.91
2024-02-29T13:05:19.393Z,59.98
2024-02-29T13:07:46.740Z,60.46
2024-02-29T13:10:13.976Z,60.93
2024-02-29T13:12:51.442Z,59.43
2024-02-29T13:15:21.188Z,59.42
2024-02-29T13:17:47.856Z,58.63
2024-02-29T13:20:14.547Z,59.54
2024-02-29T13:22:41.464Z,59.44
2024-02-29T13:25:08.871Z,58.90
2024-02-29T13:27:35.947Z,58.49
2024-02-29T13:30:02.698Z,58.77
2024-02-29T13:32:29.296Z,58.28
2024-02-29T13:34:56.071Z,58.70
2024-02-29T13:37:22.849Z,58.23
2024-02-29T13:39:49.504Z,57.46
2024-02-29T13:42:16.162Z,57.26
2024-02-29T13:44:44.336Z,57.70
2024-02-29T13:47:11.145Z,58.39
2024-02-29T13:49:38.146Z,58.75
2024-02-29T13:52:05.000Z,58.04
2024-02-29T13:54:32.103Z,58.16
2024-02-29T13:56:59.113Z,57.49
2024-02-29T13:59:25.780Z,58.51
2024-02-29T14:01:52.679Z,58.33
2024-02-29T14:04:19.435Z,58.54
2024-02-29T14:06:46.419Z,58.84
2024-02-29T14:09:14.802Z,59.45
2024-02-29T14:11:41.486Z,59.15
2024-02-29T14:14:08.368Z,59.45
2024-02-29T14:16:35.222Z,59.02
2024-02-29T14:19:01.958Z,59.04
2024-02-29T14:21:28.796Z,59.73
2024-02-29T14:23:55.387Z,59.76
2024-02-29T14:26:23.301Z,59.75
2024-02-29T14:28:51.771Z,59.53
2024-02-29T14:31:18.954Z,59.26
2024-02-29T14:33:45.828Z,59.23
2024-02-29T14:36:13.212Z,59.26
2024-02-29T14:38:40.030Z,59.31
2024-02-29T14:41:06.762Z,59.36
2024-02-29T14:43:33.472Z,58.85
2024-02-29T14:46:00.211Z,59.18
2024-02-29T14:48:26.959Z,58.90
2024-02-29T14:50:53.636Z,59.28
2024-02-29T14:53:20.493Z,58.86
2024-02-29T14:55:48.357Z,59.09
2024-02-29T14:58:15.206Z,60.74
2024-02-29T15:00:42.886Z,60.35
2024-02-29T15:03:09.691Z,60.44
2024-02-29T15:05:37.232Z,59.89
2024-02-29T15:08:06.624Z,59.82
2024-02-29T15:10:33.521Z,60.99
2024-02-29T15:13:00.985Z,62.52
2024-02-29T15:15:29.441Z,62.04
2024-02-29T15:17:56.429Z,61.87
2024-02-29T15:20:23.193Z,63.85
2024-02-29T15:22:50.003Z,64.17
2024-02-29T15:25:17.463Z,62.69
2024-02-29T15:27:46.810Z,62.48
2024-02-29T15:30:13.980Z,62.58
2024-02-29T15:32:41.003Z,63.25
2024-02-29T15:35:08.755Z,63.77
2024-02-29T15:37:35.936Z,64.56
2024-02-29T15:40:03.572Z,64.12
2024-02-29T15:42:30.320Z,63.16
2024-02-29T15:44:56.934Z,63.32
2024-02-29T15:47:23.714Z,63.06
2024-02-29T15:49:50.494Z,63.12
2024-02-29T15:52:18.663Z,62.92
2024-02-29T15:54:45.586Z,64.18
2024-02-29T15:57:12.578Z,65.75
2024-02-29T15:59:40.149Z,66.72
2024-02-29T16:02:07.505Z,66.92
2024-02-29T16:04:34.354Z,66.05
2024-02-29T16:07:01.089Z,66.67
2024-02-29T16:09:27.807Z,67.38
2024-02-29T16:11:54.554Z,67.78
2024-02-29T16:14:24.179Z,67.93
2024-02-29T16:16:50.844Z,68.65
2024-02-29T16:19:17.645Z,70.16
2024-02-29T16:21:44.711Z,70.41
2024-02-29T16:24:11.366Z,71.24
2024-02-29T16:26:38.196Z,72.14
2024-02-29T16:29:04.880Z,72.14
2024-02-29T16:31:31.551Z,73.24
2024-02-29T16:33:58.367Z,73.19
2024-02-29T16:36:25.036Z,74.50
2024-02-29T16:38:51.725Z,74.63
2024-02-29T16:41:18.373Z,75.55
2024-02-29T16:43:45.059Z,75.64
2024-02-29T16:46:12.157Z,75.68
2024-02-29T16:48:39.225Z,76.42
2024-02-29T16:51:06.006Z,76.68
2024-02-29T16:53:32.671Z,77.36
2024-02-29T16:55:59.904Z,77.20
2024-02-29T16:58:27.146Z,77.41
2024-02-29T17:00:56.081Z,77.11
2024-02-29T17:03:22.874Z,78.21
2024-02-29T17:05:49.566Z,78.01
2024-02-29T17:08:16.189Z,78.75
2024-02-29T17:10:42.955Z,78.66
2024-02-29T17:13:09.885Z,79.07
2024-02-29T17:15:38.451Z,79.48
2024-02-29T17:18:05.349Z,79.57
2024-02-29T17:20:32.166Z,79.81
2024-02-29T17:22:58.818Z,79.91
2024-02-29T17:25:25.597Z,80.48
2024-02-29T17:27:55.282Z,80.61
2024-02-29T17:30:24.358Z,80.46
2024-02-29T17:32:51.227Z,81.25
2024-02-29T17:35:17.948Z,81.64
2024-02-29T17:37:44.955Z,81.37
2024-02-29T17:40:12.204Z,81.86
2024-02-29T17:42:38.950Z,82.10
2024-02-29T17:45:06.087Z,81.77
2024-02-29T17:47:32.786Z,82.63
2024-02-29T17:49:59.512Z,82.57
2024-02-29T17:52:26.411Z,82.53
2024-02-29T17:54:55.025Z,82.51
2024-02-29T17:57:21.793Z,82.73
2024-02-29T17:59:48.375Z,83.93
2024-02-29T18:02:14.990Z,83.35
2024-02-29T18:04:41.658Z,83.21
2024-02-29T18:07:08.362Z,84.13
2024-02-29T18:09:35.756Z,84.34
2024-02-29T18:12:02.453Z,84.21
2024-02-29T18:14:30.171Z,84.68
2024-02-29T18:16:57.639Z,84.30
2024-02-29T18:19:24.510Z,84.38
2024-02-29T18:21:51.682Z,84.17
2024-02-29T18:24:18.745Z,84.21
2024-02-29T18:26:47.357Z,84.16
2024-02-29T18:29:14.566Z,84.47
2024-02-29T18:31:41.240Z,84.74
2024-02-29T18:34:10.655Z,84.65
2024-02-29T18:36:39.070Z,85.24
2024-02-29T18:39:12.161Z,84.82
2024-02-29T18:41:40.644Z,85.06
2024-02-29T18:44:09.150Z,85.68
2024-02-29T18:46:36.959Z,85.35
2024-02-29T18:49:04.263Z,85.71
2024-02-29T18:51:31.006Z,86.04
2024-02-29T18:53:57.649Z,86.01
2024-02-29T18:56:24.380Z,85.74
2024-02-29T18:58:52.022Z,86.27
2024-02-29T19:01:19.006Z,86.70
2024-02-29T19:03:45.703Z,87.36
2024-02-29T19:06:12.680Z,87.39
2024-02-29T19:08:39.376Z,87.14
2024-02-29T19:11:07.020Z,87.79
2024-02-29T19:13:33.735Z,87.59
2024-02-29T19:16:02.640Z,87.24
2024-02-29T19:18:29.517Z,87.87
2024-02-29T19:20:56.240Z,87.62
2024-02-29T19:23:23.084Z,87.99
2024-02-29T19:25:50.476Z,88.47
2024-02-29T19:28:17.326Z,89.04
2024-02-29T19:30:44.099Z,88.19
2024-02-29T19:33:10.906Z,88.66
2024-02-29T19:35:37.583Z,88.25
2024-02-29T19:38:04.493Z,88.07
2024-02-29T19:40:31.218Z,88.60
2024-02-29T19:42:57.906Z,89.19
2024-02-29T19:45:24.784Z,88.87
2024-02-29T19:47:52.640Z,88.78
2024-02-29T19:50:21.432Z,88.94
2024-02-29T19:52:48.094Z,88.70
2024-02-29T19:55:15.924Z,88.62
2024-02-29T19:57:42.867Z,88.32
2024-02-29T20:00:11.680Z,88.61
2024-02-29T20:02:41.437Z,88.56
2024-02-29T20:05:09.873Z,88.52
2024-02-29T20:07:36.516Z,88.70
2024-02-29T20:10:03.370Z,88.38
2024-02-29T20:12:30.099Z,88.82
2024-02-29T20:14:56.748Z,88.99
2024-02-29T20:17:23.637Z,89.26
2024-02-29T20:19:50.444Z,89.40
2024-02-29T20:22:17.266Z,88.81
2024-02-29T20:24:44.025Z,89.30
2024-02-29T20:27:10.849Z,88.80
2024-02-29T20:29:37.666Z,89.03
2024-02-29T20:32:04.547Z,89.21
2024-02-29T20:34:31.226Z,88.69
2024-02-29T20:36:57.835Z,88.53
2024-02-29T20:39:24.539Z,88.87
2024-02-29T20:41:51.173Z,88.97
2024-02-29T20:44:17.793Z,89.64
2024-02-29T20:46:44.401Z,89.58
2024-02-29T20:49:11.121Z,89.67
2024-02-29T20:51:37.740Z,89.11
2024-02-29T20:54:05.018Z,89.32
2024-02-29T20:56:31.711Z,88.96
2024-02-29T20:58:58.565Z,89.27
2024-02-29T21:01:25.495Z,89.03
2024-02-29T21:03:52.774Z,89.14
2024-02-29T21:06:23.571Z,89.08
2024-02-29T21:08:50.484Z,88.87
2024-02-29T21:11:18.421Z,89.12
2024-02-29T21:13:46.128Z,89.11
2024-02-29T21:16:13.174Z,89.03
2024-02-29T21:18:39.942Z,89.47
2024-02-29T21:21:06.750Z,89.48
2024-02-29T21:23:34.374Z,89.67
2024-02-29T21:26:01.897Z,89.54
2024-02-29T21:28:28.745Z,89.17
2024-02-29T21:30:56.248Z,89.24
2024-02-29T21:33:23.155Z,88.83
2024-02-29T21:35:51.405Z,89.35
2024-02-29T21:38:18.275Z,89.34
2024-02-29T21:40:45.090Z,89.30
2024-02-29T21:43:12.152Z,89.04
2024-02-29T21:45:39.084Z,89.01
2024-02-29T21:48:06.567Z,89.10
2024-02-29T21:50:34.955Z,89.05
2024-02-29T21:53:01.592Z,89.31
2024-02-29T21:55:28.258Z,89.14
2024-02-29T21:57:55.430Z,89.38
2024-02-29T22:00:22.200Z,89.53
2024-02-29T22:02:48.993Z,89.67
2024-02-29T22:05:15.634Z,89.83
2024-02-29T22:07:42.255Z,89.85
2024-02-29T22:10:09.754Z,90.29
2024-02-29T22:12:37.365Z,90.04
2024-02-29T22:15:04.316Z,90.53
2024-02-29T22:17:31.104Z,90.35
2024-02-29T22:19:58.220Z,90.68
2024-02-29T22:22:25.057Z,90.97
2024-02-29T22:24:51.935Z,91.25
2024-02-29T22:27:18.592Z,91.02
2024-02-29T22:29:45.208Z,91.18
2024-02-29T22:32:11.785Z,91.09
2024-02-29T22:34:38.467Z,90.95
2024-02-29T22:37:05.612Z,90.95
2024-02-29T22:39:32.649Z,90.72
2024-02-29T22:42:02.268Z,91.05
2024-02-29T22:44:30.079Z,90.93
2024-02-29T22:46:56.887Z,90.95
2024-02-29T22:49:24.574Z,90.64
2024-02-29T22:51:51.666Z,90.61
2024-02-29T22:54:18.969Z,90.76
2024-02-29T22:56:45.720Z,90.68
2024-02-29T22:59:12.376Z,90.29
2024-02-29T23:01:45.675Z,90.40
2024-02-29T23:04:13.425Z,90.77
2024-02-29T23:06:40.186Z,90.88
2024-02-29T23:09:06.989Z,90.80
2024-02-29T23:11:34.510Z,90.67
2024-02-29T23:14:01.229Z,91.30
2024-02-29T23:16:28.244Z,90.90
2024-02-29T23:18:55.011Z,91.05
2024-02-29T23:21:21.966Z,91.08
2024-02-29T23:23:48.599Z,91.13
2024-02-29T23:26:15.223Z,91.53
2024-02-29T23:28:41.844Z,91.01
2024-02-29T23:31:08.529Z,91.06
2024-02-29T23:33:35.813Z,90.90
2024-02-29T23:36:02.661Z,90.72
2024-02-29T23:38:29.298Z,90.56
2024-02-29T23:40:55.912Z,90.61
2024-02-29T23:43:22.540Z,90.65
2024-02-29T23:45:49.421Z,90.33
2024-02-29T23:48:17.079Z,90.76
2024-02-29T23:50:45.444Z,90.60
2024-02-29T23:53:12.270Z,90.18
2024-02-29T23:55:38.949Z,89.95
2024-02-29T23:58:05.681Z,90.05
